LEBL/BCN METAR and TAF weather

Enter ICAO airport designator
Station Type Date Time Source
LEBL METAR 2020/01/18 13:00 UTC NOAA

LEBL 181300Z 21007KT 180V240 CAVOK 14/03 Q1026 NOSIG


Station Type Date Time Source
LEBL Decoded METAR 2020/01/18 13:00 UTC NOAA

Barcelona / Aeropuerto, Spain (LEBL) 41-17N 002-04E 6M
Jan 18, 2020 - 08:00 AM EST / 2020.01.18 1300 UTC
Wind: from the SSW (210 degrees) at 8 MPH (7 KT) (direction variable):0
Visibility: greater than 7 mile(s):0
Temperature: 57 F (14 C)
Dew Point: 37 F (3 C)
Relative Humidity: 47%
Pressure (altimeter): 30.30 in. Hg (1026 hPa)
ob: LEBL 181300Z 21007KT 180V240 CAVOK 14/03 Q1026 NOSIG
cycle: 13

Station Type Date Time Source
LEBL TAF 2020/01/18 12:27 UTC NOAA

TAF LEBL 181100Z 1812/1912 22010KT 9999 FEW025 TX14/1814Z TN07/1906Z
BECMG 1818/1820 35005KT BKN035
BECMG 1822/1901 05016KT BKN020 PROB40
TEMPO 1821/1912 4000 SHRA BKN014 FEW030TCU PROB40
TEMPO 1902/1912 04020G38KT

Example: see airport list